Time;durP1;ratioP1;P1;durP2;ratioP2;P2;SDS_P1;SDS_P2;PMS_P1;PMS_P2;Temp;Humidity;BMP_temperature;BMP_pressure;BME280_temperature;BME280_humidity;BME280_pressure;Samples;Min_cycle;Max_cycle;Signal;HPM_P1;HPM_P2
2021/06/01 00:01:30;;;;;;;0.25;0.25;;;10.80;74.10;;;;;;5054460;28;20028;-88
2021/06/01 00:03:55;;;;;;;0.25;0.25;;;10.80;74.50;;;;;;5037816;28;20028;-88
2021/06/01 00:06:21;;;;;;;0.50;0.50;;;10.70;74.20;;;;;;5037445;28;20401;-88
2021/06/01 00:08:47;;;;;;;0.55;0.55;;;10.70;74.60;;;;;;5037824;28;20078;-88
2021/06/01 00:11:13;;;;;;;0.20;0.20;;;10.80;74.40;;;;;;5037564;28;20078;-89
2021/06/01 00:13:41;;;;;;;0.32;0.32;;;10.80;74.20;;;;;;5037555;28;20443;-87
2021/06/01 00:16:07;;;;;;;0.40;0.40;;;10.80;74.10;;;;;;5037304;28;20461;-88
2021/06/01 00:18:33;;;;;;;0.30;0.30;;;10.80;73.90;;;;;;5037924;28;20425;-88
2021/06/01 00:20:59;;;;;;;0.20;0.20;;;10.90;73.60;;;;;;5037473;28;20028;-89
2021/06/01 00:23:25;;;;;;;0.30;0.30;;;10.80;73.30;;;;;;5039284;28;20442;-88
2021/06/01 00:25:51;;;;;;;0.20;0.20;;;10.80;73.60;;;;;;5041159;28;20075;-89
2021/06/01 00:28:16;;;;;;;0.40;0.40;;;10.70;74.10;;;;;;5041551;28;20024;-89
2021/06/01 00:30:43;;;;;;;0.20;0.20;;;10.60;73.50;;;;;;5041306;28;20477;-89
2021/06/01 00:33:10;;;;;;;0.30;0.30;;;10.60;74.50;;;;;;5057949;28;20044;-89
2021/06/01 00:35:37;;;;;;;0.30;0.30;;;10.50;74.60;;;;;;5041506;28;20478;-89
2021/06/01 00:38:03;;;;;;;0.30;0.30;;;10.40;75.30;;;;;;5041485;28;20107;-88
2021/06/01 00:40:29;;;;;;;0.20;0.20;;;10.50;74.90;;;;;;5041481;28;20051;-89
2021/06/01 00:42:55;;;;;;;0.20;0.20;;;10.60;74.50;;;;;;5041732;28;20059;-89
2021/06/01 00:45:23;;;;;;;0.20;0.20;;;10.70;73.80;;;;;;5041833;28;20028;-89
2021/06/01 00:47:49;;;;;;;0.85;0.85;;;10.70;74.20;;;;;;5041520;28;20489;-89
2021/06/01 00:50:15;;;;;;;0.20;0.20;;;10.90;73.90;;;;;;5058120;28;20029;-88
2021/06/01 00:52:41;;;;;;;0.20;0.20;;;10.70;73.80;;;;;;5057925;28;20054;-89
2021/06/01 00:55:08;;;;;;;0.30;0.30;;;10.80;74.00;;;;;;5041532;28;20025;-88
2021/06/01 00:57:35;;;;;;;0.20;0.20;;;10.90;73.70;;;;;;5041704;28;20448;-88
2021/06/01 01:00:01;;;;;;;0.73;0.73;;;10.90;73.40;;;;;;5040980;28;20028;-89
2021/06/01 01:02:27;;;;;;;2.40;1.70;;;10.90;73.70;;;;;;5057613;28;20025;-89
2021/06/01 01:04:54;;;;;;;0.35;0.35;;;10.90;73.70;;;;;;5041427;28;20020;-89
2021/06/01 01:07:44;;;;;;;0.20;0.20;;;10.90;73.50;;;;;;5040636;28;20025;-88
2021/06/01 01:10:14;;;;;;;1.55;0.98;;;10.90;73.00;;;;;;5040893;28;20036;-88
2021/06/01 01:12:51;;;;;;;0.22;0.22;;;10.90;73.30;;;;;;5057416;28;20382;-89
2021/06/01 01:15:21;;;;;;;0.20;0.20;;;10.70;74.20;;;;;;5040811;28;20024;-88
2021/06/01 01:17:56;;;;;;;0.20;0.20;;;10.70;74.20;;;;;;5058467;28;20413;-89
2021/06/01 01:21:04;;;;;;;0.40;0.40;;;10.60;74.50;;;;;;5041154;28;20130;-88
2021/06/01 01:23:32;;;;;;;0.20;0.20;;;10.50;74.40;;;;;;5040776;28;20033;-88
2021/06/01 01:26:05;;;;;;;0.20;0.20;;;10.50;74.90;;;;;;5041277;28;20024;-88
2021/06/01 01:28:54;;;;;;;0.20;0.20;;;10.30;75.70;;;;;;5041222;28;20036;-88
2021/06/01 01:31:35;;;;;;;3.17;0.60;;;10.30;75.50;;;;;;5040803;28;20115;-88
2021/06/01 01:34:03;;;;;;;1.20;0.87;;;10.10;76.50;;;;;;5042418;28;20581;-89
2021/06/01 01:36:29;;;;;;;1.17;1.15;;;10.10;76.30;;;;;;5056312;28;20032;-89
2021/06/01 01:39:00;;;;;;;0.30;0.30;;;10.00;76.80;;;;;;5063747;28;20029;-89
2021/06/01 01:41:26;;;;;;;0.20;0.20;;;10.00;76.70;;;;;;5055773;28;20039;-88
2021/06/01 01:43:57;;;;;;;0.20;0.20;;;10.20;76.20;;;;;;5041206;28;20032;-88
2021/06/01 01:46:34;;;;;;;0.20;0.20;;;10.30;76.00;;;;;;5040589;28;20017;-88
2021/06/01 01:49:01;;;;;;;0.20;0.20;;;10.40;75.30;;;;;;5041564;28;20166;-88
2021/06/01 01:51:37;;;;;;;0.20;0.20;;;10.40;75.10;;;;;;5056994;28;20550;-88
2021/06/01 01:54:10;;;;;;;0.20;0.20;;;10.20;74.70;;;;;;5040101;28;20095;-88
2021/06/01 01:56:40;;;;;;;0.20;0.20;;;10.10;76.70;;;;;;5040061;28;20055;-88
2021/06/01 01:59:10;;;;;;;0.20;0.20;;;10.30;75.40;;;;;;5040425;28;20040;-89
2021/06/01 02:01:37;;;;;;;0.40;0.40;;;10.20;74.80;;;;;;5056701;28;20028;-88
2021/06/01 02:04:05;;;;;;;0.30;0.30;;;10.10;75.70;;;;;;5039948;28;20032;-89
2021/06/01 02:06:31;;;;;;;0.20;0.20;;;10.00;75.80;;;;;;5056120;28;20395;-88
2021/06/01 02:08:57;;;;;;;0.20;0.20;;;10.00;76.50;;;;;;5039848;28;20017;-88
2021/06/01 02:11:23;;;;;;;0.20;0.20;;;10.00;76.50;;;;;;5040161;28;20432;-88
2021/06/01 02:13:54;;;;;;;0.65;0.65;;;10.10;76.50;;;;;;5040117;28;20070;-89
2021/06/01 02:16:21;;;;;;;0.20;0.20;;;10.00;76.30;;;;;;5039330;28;20029;-88
2021/06/01 02:18:48;;;;;;;0.20;0.20;;;10.00;76.30;;;;;;5040008;28;20038;-89
2021/06/01 02:24:27;;;;;;;0.30;0.30;;;9.80;77.50;;;;;;5074281;28;20067;-89
2021/06/01 02:27:25;;;;;;;0.30;0.30;;;9.90;77.10;;;;;;5039492;28;20111;-88
2021/06/01 02:29:59;;;;;;;0.20;0.20;;;9.90;76.80;;;;;;5035716;28;20107;-88
2021/06/01 02:32:32;;;;;;;0.20;0.20;;;9.90;76.70;;;;;;5040355;28;20063;-89
2021/06/01 02:35:03;;;;;;;0.20;0.20;;;9.90;77.00;;;;;;5040175;28;20040;-89
2021/06/01 02:37:30;;;;;;;0.20;0.20;;;9.90;77.30;;;;;;5040222;28;20028;-89
2021/06/01 02:39:56;;;;;;;0.20;0.20;;;10.00;76.60;;;;;;5056829;28;20028;-89
2021/06/01 02:42:23;;;;;;;0.22;0.22;;;10.00;76.60;;;;;;5040003;28;20031;-89
2021/06/01 02:44:51;;;;;;;0.20;0.20;;;9.90;76.50;;;;;;5056611;28;20024;-89
2021/06/01 02:47:17;;;;;;;0.30;0.30;;;9.90;77.10;;;;;;5038913;28;20063;-89
2021/06/01 02:49:54;;;;;;;0.30;0.30;;;9.90;77.00;;;;;;5039531;28;20036;-89
2021/06/01 02:52:22;;;;;;;0.20;0.20;;;9.90;77.30;;;;;;5039580;28;20427;-87
2021/06/01 02:54:51;;;;;;;0.20;0.20;;;9.90;76.70;;;;;;5039888;28;20031;-89
2021/06/01 02:57:19;;;;;;;0.20;0.20;;;9.90;76.60;;;;;;5038412;28;20024;-89
2021/06/01 02:59:45;;;;;;;0.20;0.20;;;10.00;76.60;;;;;;5038811;28;20062;-89
2021/06/01 03:02:11;;;;;;;0.20;0.20;;;10.00;75.90;;;;;;5038695;28;20052;-88
2021/06/01 03:04:51;;;;;;;0.45;0.45;;;10.00;76.20;;;;;;5038677;28;20021;-88
2021/06/01 03:07:27;;;;;;;0.20;0.20;;;10.00;76.20;;;;;;5054736;28;20059;-88
2021/06/01 03:09:56;;;;;;;0.30;0.30;;;9.90;76.10;;;;;;5038510;28;20438;-88
2021/06/01 03:12:37;;;;;;;0.20;0.20;;;9.70;76.10;;;;;;5038479;28;20025;-88
2021/06/01 03:15:05;;;;;;;0.20;0.20;;;9.60;77.80;;;;;;5038367;28;20510;-88
2021/06/01 03:17:33;;;;;;;0.20;0.20;;;9.80;76.60;;;;;;5037707;28;20028;-88
2021/06/01 03:19:59;;;;;;;0.70;0.70;;;9.90;76.40;;;;;;5037867;28;20032;-88
2021/06/01 03:22:26;;;;;;;0.20;0.20;;;9.80;76.40;;;;;;5038357;28;20093;-88
2021/06/01 03:24:52;;;;;;;0.20;0.20;;;9.90;76.50;;;;;;5039163;28;20444;-88
2021/06/01 03:27:20;;;;;;;0.20;0.20;;;9.80;75.90;;;;;;5037601;28;20036;-88
2021/06/01 03:29:46;;;;;;;0.20;0.20;;;9.80;76.20;;;;;;5037973;28;20115;-87
2021/06/01 03:32:11;;;;;;;0.20;0.20;;;9.90;76.40;;;;;;5038009;28;20170;-88
2021/06/01 03:34:40;;;;;;;0.20;0.20;;;9.90;75.40;;;;;;5038250;28;20113;-88
2021/06/01 03:37:08;;;;;;;0.20;0.20;;;9.50;76.20;;;;;;5037783;28;20028;-89
2021/06/01 03:39:41;;;;;;;0.20;0.20;;;9.30;77.00;;;;;;5054232;28;20124;-89
2021/06/01 03:42:12;;;;;;;0.20;0.20;;;9.20;77.50;;;;;;5038207;28;20491;-89
2021/06/01 03:44:44;;;;;;;0.20;0.20;;;9.30;77.40;;;;;;5037991;28;20555;-89
2021/06/01 03:47:09;;;;;;;;;;;9.20;77.60;;;;;;5072759;28;20027;-89
2021/06/01 03:49:38;;;;;;;0.20;0.20;;;9.20;77.50;;;;;;5037834;28;19908;-88
2021/06/01 03:52:08;;;;;;;0.40;0.40;;;9.00;78.90;;;;;;5037551;28;20043;-89
2021/06/01 03:54:41;;;;;;;0.68;0.68;;;9.00;78.80;;;;;;5038108;28;20460;-88
2021/06/01 03:57:10;;;;;;;0.20;0.20;;;8.90;78.30;;;;;;5037914;28;20025;-88
2021/06/01 03:59:39;;;;;;;0.30;0.30;;;9.10;79.30;;;;;;5042129;28;20378;-88
2021/06/01 04:02:07;;;;;;;0.30;0.30;;;9.10;79.40;;;;;;5042701;28;20054;-89
2021/06/01 04:04:38;;;;;;;0.20;0.20;;;9.30;79.20;;;;;;5042048;28;20470;-89
2021/06/01 04:07:08;;;;;;;1.23;1.23;;;9.30;79.10;;;;;;5041703;28;20060;-89
2021/06/01 04:09:58;;;;;;;0.20;0.20;;;9.30;78.60;;;;;;5042023;28;20021;-89
2021/06/01 04:12:26;;;;;;;0.15;0.15;;;9.30;79.20;;;;;;5057841;28;20036;-89
2021/06/01 04:14:54;;;;;;;0.17;0.17;;;9.60;78.90;;;;;;5041895;28;20463;-89
2021/06/01 04:17:20;;;;;;;0.20;0.20;;;9.80;78.40;;;;;;5041678;28;20036;-89
2021/06/01 04:19:59;;;;;;;0.20;0.20;;;9.90;77.30;;;;;;5043042;28;20020;-89
2021/06/01 04:22:32;;;;;;;0.20;0.20;;;10.00;77.00;;;;;;5042639;28;20029;-89
2021/06/01 04:24:58;;;;;;;0.20;0.20;;;10.20;76.50;;;;;;5041616;28;20455;-89
2021/06/01 04:27:24;;;;;;;0.20;0.20;;;10.30;76.10;;;;;;5041800;28;20028;-89
2021/06/01 04:29:49;;;;;;;0.52;0.52;;;10.30;75.80;;;;;;5041823;28;20051;-89
2021/06/01 04:32:15;;;;;;;0.20;0.20;;;10.30;75.40;;;;;;5042196;28;20037;-89
2021/06/01 04:34:46;;;;;;;0.20;0.20;;;10.30;76.50;;;;;;5042147;28;20473;-89
2021/06/01 04:37:11;;;;;;;0.30;0.30;;;10.50;76.10;;;;;;5042048;28;20029;-89
2021/06/01 04:39:37;;;;;;;0.20;0.20;;;10.50;75.80;;;;;;5042518;28;20032;-89
2021/06/01 04:42:03;;;;;;;0.20;0.20;;;10.60;75.60;;;;;;5053564;28;20016;-89
2021/06/01 04:44:29;;;;;;;0.20;0.20;;;10.70;75.40;;;;;;5067747;28;20035;-89
2021/06/01 04:46:55;;;;;;;0.20;0.20;;;11.00;74.90;;;;;;5067650;28;20029;-89
2021/06/01 04:49:21;;;;;;;0.20;0.20;;;11.10;74.00;;;;;;5066925;28;20044;-90
2021/06/01 04:51:47;;;;;;;0.20;0.20;;;11.10;73.50;;;;;;5067051;28;20016;-90
2021/06/01 04:54:12;;;;;;;0.20;0.20;;;11.00;75.30;;;;;;5066510;28;20013;-89
2021/06/01 04:56:38;;;;;;;0.20;0.20;;;11.10;74.90;;;;;;5076417;28;20158;-89
2021/06/01 04:59:04;;;;;;;0.40;0.40;;;11.20;75.50;;;;;;5041430;28;20056;-89
2021/06/01 05:01:32;;;;;;;0.28;0.28;;;11.30;75.80;;;;;;5041770;28;20028;-89
2021/06/01 05:03:58;;;;;;;0.20;0.20;;;11.30;76.40;;;;;;5040607;28;20025;-89
2021/06/01 05:06:24;;;;;;;0.20;0.20;;;11.00;76.00;;;;;;5082096;22;20093;-96
2021/06/01 05:08:50;;;;;;;0.20;0.20;;;11.10;77.30;;;;;;5086106;28;20050;-96
2021/06/01 05:11:17;;;;;;;0.35;0.35;;;11.40;76.80;;;;;;5085319;28;20008;-96
2021/06/01 05:13:43;;;;;;;0.20;0.20;;;11.70;74.50;;;;;;5085515;28;20016;-94
2021/06/01 05:16:09;;;;;;;0.20;0.20;;;11.90;72.30;;;;;;5068575;28;20039;-94
2021/06/01 05:18:41;;;;;;;0.35;0.35;;;12.10;72.50;;;;;;5082810;28;20028;-95
2021/06/01 05:21:09;;;;;;;0.20;0.20;;;12.30;70.30;;;;;;5081619;28;20011;-96
2021/06/01 05:23:38;;;;;;;0.20;0.20;;;12.40;70.00;;;;;;5076426;28;20033;-96
2021/06/01 05:26:05;;;;;;;0.40;0.40;;;12.50;69.70;;;;;;5065165;28;20005;-96
2021/06/01 05:28:51;;;;;;;0.40;0.40;;;12.60;69.50;;;;;;5065091;28;20070;-95
2021/06/01 05:34:05;;;;;;;0.30;0.30;;;12.40;69.80;;;;;;5083507;28;20054;-95
2021/06/01 05:36:41;;;;;;;0.30;0.30;;;12.60;69.30;;;;;;5045649;28;20060;-73
2021/06/01 05:39:12;;;;;;;0.52;0.52;;;12.70;69.40;;;;;;5033838;28;20022;-73
2021/06/01 05:41:38;;;;;;;1.05;1.05;;;12.60;69.40;;;;;;5053166;28;20116;-73
2021/06/01 05:44:04;;;;;;;0.15;0.15;;;12.80;69.30;;;;;;5053672;28;20098;-73
2021/06/01 05:46:30;;;;;;;3.20;0.63;;;12.90;68.40;;;;;;5035052;28;20500;-73
2021/06/01 05:48:55;;;;;;;0.20;0.20;;;12.90;68.30;;;;;;5053606;28;20025;-73
2021/06/01 05:51:28;;;;;;;0.20;0.20;;;12.80;68.90;;;;;;5053082;28;20044;-73
2021/06/01 05:53:54;;;;;;;0.20;0.20;;;12.80;69.40;;;;;;5037140;28;20022;-73
2021/06/01 05:56:20;;;;;;;0.20;0.20;;;12.80;70.00;;;;;;5039909;28;20025;-73
2021/06/01 05:58:45;;;;;;;1.25;0.95;;;12.80;70.20;;;;;;5033872;28;20440;-73
2021/06/01 06:01:11;;;;;;;0.17;0.17;;;12.90;69.60;;;;;;5033416;28;20029;-73
2021/06/01 06:03:37;;;;;;;0.85;0.85;;;13.00;69.20;;;;;;5014007;28;20034;-73
2021/06/01 06:06:09;;;;;;;0.20;0.20;;;12.90;69.90;;;;;;5013741;28;20029;-72
2021/06/01 06:08:35;;;;;;;0.20;0.20;;;13.00;70.30;;;;;;5013510;28;20064;-73
2021/06/01 06:11:01;;;;;;;0.30;0.28;;;13.10;70.70;;;;;;4996202;28;20030;-72
2021/06/01 06:13:26;;;;;;;0.20;0.20;;;13.30;70.10;;;;;;4996126;28;20033;-73
2021/06/01 06:15:52;;;;;;;1.55;0.70;;;13.50;69.60;;;;;;5026204;28;20438;-73
2021/06/01 06:18:30;;;;;;;0.35;0.35;;;13.60;68.20;;;;;;5045833;28;20029;-73
2021/06/01 06:21:00;;;;;;;0.20;0.20;;;13.90;65.90;;;;;;5051919;28;20036;-73
2021/06/01 06:23:31;;;;;;;0.75;0.75;;;14.00;65.50;;;;;;5014735;28;20033;-73
2021/06/01 06:25:57;;;;;;;0.20;0.20;;;14.20;65.20;;;;;;5013051;28;20026;-73
2021/06/01 06:28:23;;;;;;;1.80;1.65;;;14.30;65.40;;;;;;5030753;28;20514;-73
2021/06/01 06:30:49;;;;;;;0.52;0.52;;;14.20;65.10;;;;;;5032288;28;20096;-72
2021/06/01 06:33:15;;;;;;;1.75;1.38;;;14.20;65.40;;;;;;5015709;28;20036;-73
2021/06/01 06:35:40;;;;;;;0.20;0.20;;;14.40;65.50;;;;;;5032048;28;20163;-73
2021/06/01 06:38:06;;;;;;;0.15;0.15;;;14.50;64.40;;;;;;5018717;28;20026;-73
2021/06/01 06:40:32;;;;;;;0.20;0.20;;;14.60;65.80;;;;;;5013068;28;20026;-72
2021/06/01 06:42:58;;;;;;;0.40;0.40;;;14.70;65.60;;;;;;5018925;28;20364;-72
2021/06/01 06:45:25;;;;;;;0.20;0.20;;;14.90;64.70;;;;;;5016750;28;20048;-73
2021/06/01 06:50:22;;;;;;;0.52;0.50;;;15.20;62.00;;;;;;5013922;28;20075;-73
2021/06/01 06:52:49;;;;;;;0.20;0.20;;;15.30;60.90;;;;;;5031842;28;20512;-73
2021/06/01 06:55:16;;;;;;;1.88;1.10;;;15.30;60.10;;;;;;5031615;28;20032;-73
2021/06/01 06:57:42;;;;;;;5.43;0.93;;;15.30;59.40;;;;;;5031694;28;20477;-73
2021/06/01 07:00:13;;;;;;;0.75;0.73;;;15.30;59.00;;;;;;5031553;28;20037;-73
2021/06/01 07:02:41;;;;;;;0.47;0.47;;;15.30;59.20;;;;;;4996881;28;20481;-73
2021/06/01 07:05:10;;;;;;;0.52;0.52;;;15.40;59.50;;;;;;5032787;28;20018;-73
2021/06/01 07:07:36;;;;;;;0.20;0.20;;;15.20;59.50;;;;;;5013973;28;20156;-73
2021/06/01 07:10:03;;;;;;;0.20;0.20;;;15.50;59.90;;;;;;5013595;28;20546;-73
2021/06/01 07:12:29;;;;;;;1.55;1.27;;;15.60;57.90;;;;;;5031148;28;20417;-73
2021/06/01 07:14:58;;;;;;;0.55;0.55;;;15.70;56.90;;;;;;5031057;28;20030;-73
2021/06/01 07:17:24;;;;;;;0.20;0.20;;;15.60;57.70;;;;;;5031361;28;20029;-73
2021/06/01 07:19:55;;;;;;;0.22;0.22;;;15.80;57.70;;;;;;5031133;28;20127;-73
2021/06/01 07:22:21;;;;;;;0.20;0.20;;;15.90;57.30;;;;;;5031251;28;20424;-73
2021/06/01 07:24:48;;;;;;;0.20;0.20;;;16.00;57.00;;;;;;5031383;28;20355;-73
2021/06/01 07:27:14;;;;;;;3.50;0.88;;;16.10;56.60;;;;;;5031195;28;20033;-74
2021/06/01 07:29:40;;;;;;;0.38;0.38;;;16.20;56.90;;;;;;5031955;28;20342;-73
2021/06/01 07:32:06;;;;;;;1.55;1.45;;;16.30;56.50;;;;;;5030977;28;20033;-73
2021/06/01 07:34:32;;;;;;;0.50;0.50;;;16.30;56.10;;;;;;5030401;28;20022;-73
2021/06/01 07:36:58;;;;;;;1.08;0.90;;;16.40;57.30;;;;;;5034761;28;20045;-73
2021/06/01 07:39:24;;;;;;;0.30;0.30;;;16.60;56.90;;;;;;5031401;28;20025;-73
2021/06/01 07:41:50;;;;;;;1.48;0.60;;;16.70;56.00;;;;;;5030751;28;20145;-73
2021/06/01 07:44:15;;;;;;;0.25;0.25;;;16.80;54.40;;;;;;5031167;28;20067;-72
2021/06/01 07:46:41;;;;;;;0.20;0.20;;;16.90;54.10;;;;;;5026369;28;20017;-72
2021/06/01 07:49:09;;;;;;;0.30;0.30;;;17.00;54.10;;;;;;5030718;28;20104;-73
2021/06/01 07:51:35;;;;;;;0.10;0.10;;;17.10;53.90;;;;;;4996839;28;20033;-72
2021/06/01 07:54:03;;;;;;;0.30;0.30;;;17.30;54.90;;;;;;4996561;28;20436;-72
2021/06/01 07:56:33;;;;;;;0.28;0.28;;;17.40;53.90;;;;;;5030957;28;20382;-72
2021/06/01 07:58:59;;;;;;;1.45;0.95;;;17.50;53.80;;;;;;5015884;28;20443;-74
2021/06/01 08:01:25;;;;;;;5.75;2.30;;;17.50;53.60;;;;;;4996496;28;20025;-73
2021/06/01 08:03:51;;;;;;;0.20;0.20;;;17.70;52.30;;;;;;5012486;28;20060;-73
2021/06/01 08:06:17;;;;;;;0.50;0.50;;;17.70;53.10;;;;;;5030408;28;20052;-73
2021/06/01 08:08:43;;;;;;;2.72;1.05;;;17.90;53.50;;;;;;5030229;28;20053;-74
2021/06/01 08:11:09;;;;;;;0.57;0.57;;;18.00;53.30;;;;;;5030521;28;20034;-74
2021/06/01 08:13:35;;;;;;;0.98;0.65;;;18.00;52.90;;;;;;5012582;28;20035;-74
2021/06/01 08:16:03;;;;;;;0.38;0.30;;;18.40;53.10;;;;;;5030246;28;20051;-73
2021/06/01 08:18:33;;;;;;;0.30;0.30;;;18.70;52.10;;;;;;5030511;28;20091;-73
2021/06/01 08:21:35;;;;;;;0.63;0.30;;;18.70;51.80;;;;;;5013243;28;20100;-73
2021/06/01 08:23:45;;;;;;;0.10;0.10;;;18.70;51.10;;;;;;5026680;28;20061;-72
2021/06/01 08:26:10;;;;;;;0.10;0.10;;;18.80;51.50;;;;;;5012993;28;20080;-73
2021/06/01 08:28:36;;;;;;;0.30;0.30;;;19.00;51.60;;;;;;5012795;28;20096;-74
2021/06/01 08:31:02;;;;;;;0.20;0.20;;;19.20;50.20;;;;;;4996355;28;20060;-73
2021/06/01 08:33:28;;;;;;;0.25;0.20;;;19.30;50.20;;;;;;5030194;28;20366;-73
2021/06/01 08:35:54;;;;;;;2.50;0.85;;;19.40;49.80;;;;;;5011835;28;20343;-74
2021/06/01 08:38:21;;;;;;;0.10;0.10;;;19.70;49.90;;;;;;4996280;28;20026;-74
2021/06/01 08:40:51;;;;;;;1.05;0.60;;;19.90;48.80;;;;;;5030272;28;20061;-73
2021/06/01 08:43:20;;;;;;;0.10;0.10;;;19.80;48.50;;;;;;5030269;28;20021;-73
2021/06/01 08:45:51;;;;;;;2.50;0.60;;;19.80;49.10;;;;;;5015776;28;20026;-74
2021/06/01 08:48:17;;;;;;;0.40;0.40;;;19.90;49.10;;;;;;5034013;28;20148;-74
2021/06/01 08:50:46;;;;;;;0.80;0.70;;;20.10;49.10;;;;;;5017925;28;20029;-74
2021/06/01 08:53:13;;;;;;;0.60;0.60;;;20.50;47.70;;;;;;5033906;28;20037;-74
2021/06/01 08:55:39;;;;;;;0.55;0.55;;;20.50;47.00;;;;;;5033437;28;20127;-73
2021/06/01 08:58:04;;;;;;;0.85;0.38;;;20.70;47.60;;;;;;5016298;28;20516;-73
2021/06/01 09:00:30;;;;;;;0.20;0.20;;;20.90;46.70;;;;;;5016445;28;20033;-73
2021/06/01 09:03:08;;;;;;;0.22;0.22;;;20.80;45.80;;;;;;5015782;28;20060;-74
2021/06/01 09:05:34;;;;;;;0.10;0.10;;;21.10;45.50;;;;;;4999143;28;20480;-73
2021/06/01 09:08:04;;;;;;;0.57;0.40;;;21.10;44.90;;;;;;5033519;28;20072;-74
2021/06/01 09:21:42;;;;;;;0.30;0.30;;;22.00;43.80;;;;;;5015048;28;20465;-74
2021/06/01 09:24:08;;;;;;;0.15;0.15;;;22.10;42.30;;;;;;5015686;28;20025;-73
2021/06/01 09:26:38;;;;;;;0.38;0.38;;;22.00;42.90;;;;;;5032878;28;20068;-74
2021/06/01 09:29:04;;;;;;;1.35;0.60;;;22.20;42.40;;;;;;5015670;28;20047;-74
2021/06/01 09:31:29;;;;;;;0.47;0.47;;;22.40;42.40;;;;;;5035530;28;20412;-74
2021/06/01 09:33:55;;;;;;;0.45;0.38;;;22.50;42.50;;;;;;5015546;28;20026;-74
2021/06/01 09:36:22;;;;;;;2.00;1.00;;;22.30;41.00;;;;;;5014784;28;20072;-73
2021/06/01 09:38:48;;;;;;;1.33;1.23;;;22.00;41.10;;;;;;5033171;28;20183;-73
2021/06/01 09:41:26;;;;;;;0.10;0.10;;;21.80;42.30;;;;;;5016131;28;20108;-73
2021/06/01 09:43:59;;;;;;;0.20;0.20;;;22.30;42.90;;;;;;5012338;28;20017;-73
2021/06/01 09:46:26;;;;;;;0.10;0.10;;;22.80;41.50;;;;;;5032863;28;20416;-73
2021/06/01 09:48:54;;;;;;;0.75;0.65;;;23.00;40.50;;;;;;5033658;28;20381;-74
2021/06/01 09:51:32;;;;;;;0.57;0.52;;;23.00;41.70;;;;;;5036897;28;20104;-74
2021/06/01 09:54:27;;;;;;;3.50;0.55;;;23.00;40.80;;;;;;5032943;28;20053;-74
2021/06/01 09:56:53;;;;;;;0.28;0.28;;;23.00;38.60;;;;;;5012637;28;20052;-73
2021/06/01 09:59:19;;;;;;;0.63;0.60;;;23.00;39.40;;;;;;5014854;28;20481;-74
2021/06/01 10:01:45;;;;;;;0.30;0.30;;;22.90;39.50;;;;;;5032224;28;20033;-75
2021/06/01 10:04:22;;;;;;;0.40;0.40;;;23.10;39.90;;;;;;5014979;28;20026;-75
2021/06/01 10:06:48;;;;;;;0.65;0.50;;;23.30;39.80;;;;;;5014636;28;20048;-75
2021/06/01 10:09:14;;;;;;;0.77;0.28;;;23.60;38.40;;;;;;4998495;28;20075;-74
2021/06/01 10:11:51;;;;;;;0.25;0.25;;;23.70;36.70;;;;;;5034473;28;20030;-75
2021/06/01 10:14:17;;;;;;;0.57;0.43;;;23.80;36.70;;;;;;5032645;28;20032;-75
2021/06/01 10:16:43;;;;;;;0.10;0.10;;;23.70;36.70;;;;;;5014406;28;20022;-75
2021/06/01 10:19:08;;;;;;;0.10;0.10;;;23.70;38.30;;;;;;5032439;28;20029;-75
2021/06/01 10:21:34;;;;;;;0.98;0.32;;;23.90;37.90;;;;;;5015566;28;20473;-75
2021/06/01 10:24:00;;;;;;;0.08;0.08;;;23.80;37.00;;;;;;5014448;28;20362;-74
2021/06/01 10:26:28;;;;;;;0.65;0.35;;;23.90;38.40;;;;;;5031724;28;20026;-72
2021/06/01 10:28:55;;;;;;;0.70;0.70;;;24.30;38.00;;;;;;5014310;28;20030;-73
2021/06/01 10:31:21;;;;;;;0.52;0.52;;;24.40;37.60;;;;;;5031804;28;20029;-72
2021/06/01 10:33:48;;;;;;;0.10;0.10;;;24.20;36.50;;;;;;5032065;28;20434;-72
2021/06/01 10:44:57;;;;;;;0.30;0.30;;;24.50;35.00;;;;;;5028378;28;20029;-72
2021/06/01 10:50:51;;;;;;;1.65;0.75;;;25.20;33.20;;;;;;5033943;28;20053;-72
2021/06/01 10:53:19;;;;;;;0.47;0.47;;;24.90;33.10;;;;;;5027526;28;20033;-72
2021/06/01 10:55:52;;;;;;;0.00;0.00;;;24.90;33.10;;;;;;5015405;28;20032;-72
2021/06/01 10:58:35;;;;;;;0.38;0.38;;;24.90;31.90;;;;;;5031991;28;20032;-72
2021/06/01 11:04:31;;;;;;;0.47;0.47;;;24.90;31.90;;;;;;5028466;28;20100;-72
2021/06/01 11:09:32;;;;;;;0.00;0.00;;;25.40;32.00;;;;;;5122234;22;20041;-75
2021/06/01 11:12:27;;;;;;;0.75;0.75;;;25.00;31.30;;;;;;5056832;28;20499;-74
2021/06/01 11:14:57;;;;;;;0.65;0.52;;;24.80;32.10;;;;;;5022718;28;20027;-74
2021/06/01 11:17:41;;;;;;;0.23;0.20;;;25.10;31.60;;;;;;5025850;28;20033;-74
2021/06/01 11:20:14;;;;;;;0.15;0.15;;;25.30;32.10;;;;;;5065683;28;20035;-74
2021/06/01 11:22:47;;;;;;;0.60;0.32;;;25.40;31.60;;;;;;5020226;28;20057;-73
2021/06/01 11:33:37;;;;;;;0.82;0.57;;;25.10;31.40;;;;;;5033486;28;20028;-73
2021/06/01 11:36:11;;;;;;;0.22;0.22;;;25.20;31.40;;;;;;5055572;28;20027;-73
2021/06/01 11:43:46;;;;;;;0.15;0.15;;;25.10;31.60;;;;;;5056573;28;20368;-73
2021/06/01 11:46:32;;;;;;;0.10;0.10;;;25.10;31.90;;;;;;5051571;28;20171;-73
2021/06/01 11:51:46;;;;;;;0.47;0.40;;;24.90;32.30;;;;;;5069681;28;20056;-73
2021/06/01 11:54:15;;;;;;;0.82;0.73;;;24.80;33.30;;;;;;5061233;28;20033;-73
2021/06/01 12:04:55;;;;;;;0.40;0.40;;;24.30;34.60;;;;;;5060187;28;20048;-73
2021/06/01 12:20:53;;;;;;;0.10;0.10;;;23.50;36.00;;;;;;5067068;28;20108;-74
2021/06/01 12:23:45;;;;;;;0.13;0.13;;;23.70;35.40;;;;;;5045601;28;20029;-74
2021/06/01 12:26:26;;;;;;;0.10;0.10;;;23.70;36.00;;;;;;5025650;28;20068;-74
2021/06/01 12:32:16;;;;;;;2.72;0.85;;;23.20;37.10;;;;;;5064693;28;20021;-74
2021/06/01 13:46:08;;;;;;;3.00;0.30;;;22.80;37.20;;;;;;5053402;28;20033;-74
2021/06/01 13:56:34;;;;;;;0.10;0.10;;;22.60;37.10;;;;;;5059521;28;20497;-74
2021/06/01 13:59:15;;;;;;;0.32;0.22;;;22.70;36.60;;;;;;5054448;28;20027;-74
2021/06/01 14:02:16;;;;;;;0.10;0.10;;;22.70;37.50;;;;;;5039929;28;20033;-74
2021/06/01 14:10:46;;;;;;;0.20;0.20;;;22.60;36.10;;;;;;5061985;28;20032;-74
2021/06/01 14:21:15;;;;;;;0.32;0.30;;;22.60;35.10;;;;;;5045447;28;20025;-74
2021/06/01 15:22:43;;;;;;;0.10;0.10;;;22.10;39.50;;;;;;5063919;28;20060;-73
2021/06/01 15:29:16;;;;;;;0.00;0.00;;;22.20;39.60;;;;;;5046404;28;20116;-74
2021/06/01 16:13:26;;;;;;;3.80;0.60;;;21.50;42.50;;;;;;5075757;28;20027;-75
2021/06/01 17:13:24;;;;;;;2.75;0.55;;;20.70;44.00;;;;;;5060959;28;20020;-73
2021/06/01 17:15:54;;;;;;;1.98;0.40;;;20.60;44.00;;;;;;5062341;28;20036;-73
2021/06/01 17:36:58;;;;;;;0.30;0.30;;;20.20;44.80;;;;;;5043306;28;20384;-71
2021/06/01 17:39:24;;;;;;;0.25;0.25;;;20.00;44.90;;;;;;5038478;28;20018;-71
2021/06/01 17:41:53;;;;;;;0.88;0.55;;;19.90;45.40;;;;;;5034192;28;20026;-71
2021/06/01 17:44:23;;;;;;;0.45;0.45;;;20.00;45.40;;;;;;5041760;28;20029;-71
2021/06/01 17:46:49;;;;;;;0.30;0.30;;;20.00;45.20;;;;;;5033721;28;20021;-71
2021/06/01 17:49:21;;;;;;;0.15;0.15;;;20.00;45.70;;;;;;5042429;28;20109;-71
2021/06/01 17:51:52;;;;;;;;;;;20.00;46.20;;;;;;5043085;28;20067;-71
2021/06/01 17:54:29;;;;;;;0.20;0.20;;;20.10;46.00;;;;;;5049177;28;19908;-71
2021/06/01 17:56:55;;;;;;;0.10;0.10;;;20.10;45.70;;;;;;5025040;28;20390;-71
2021/06/01 17:59:24;;;;;;;0.10;0.10;;;19.90;45.80;;;;;;5047251;28;20112;-70
2021/06/01 18:01:51;;;;;;;0.10;0.10;;;19.70;46.30;;;;;;5044659;28;20025;-71
2021/06/01 18:04:19;;;;;;;0.28;0.28;;;19.70;46.60;;;;;;5034479;28;20025;-71
2021/06/01 18:07:13;;;;;;;0.98;0.90;;;19.70;46.40;;;;;;5034911;28;20487;-71
2021/06/01 18:10:13;;;;;;;0.47;0.40;;;19.70;46.30;;;;;;5041378;28;20041;-73
2021/06/01 18:37:39;;;;;;;0.32;0.32;;;19.40;45.40;;;;;;5036272;28;20013;-74
2021/06/01 18:51:20;;;;;;;0.10;0.10;;;19.20;46.40;;;;;;5031359;28;20029;-73
2021/06/01 19:02:18;;;;;;;0.10;0.10;;;19.00;47.30;;;;;;5011505;28;20493;-73
2021/06/01 19:52:08;;;;;;;0.10;0.10;;;18.50;47.50;;;;;;5012328;28;20501;-74
2021/06/01 19:54:35;;;;;;;0.10;0.10;;;18.50;47.50;;;;;;5012280;28;20358;-74
2021/06/01 19:57:01;;;;;;;0.10;0.10;;;18.50;47.40;;;;;;5012693;28;20109;-73
2021/06/01 19:59:28;;;;;;;0.10;0.10;;;18.40;47.80;;;;;;5031760;28;20029;-73
2021/06/01 20:01:54;;;;;;;0.10;0.10;;;18.40;47.90;;;;;;5031614;28;20033;-73
2021/06/01 20:04:21;;;;;;;0.20;0.20;;;18.40;47.90;;;;;;5031906;28;20017;-73
2021/06/01 20:06:48;;;;;;;0.10;0.10;;;18.40;48.10;;;;;;5031608;28;20088;-73
2021/06/01 20:09:18;;;;;;;0.10;0.10;;;18.40;48.10;;;;;;5030489;28;20185;-73
2021/06/01 20:11:45;;;;;;;0.10;0.10;;;18.30;48.10;;;;;;5030270;28;20032;-73
2021/06/01 20:14:11;;;;;;;0.10;0.10;;;18.20;48.40;;;;;;5031644;28;20362;-73
2021/06/01 20:16:42;;;;;;;0.10;0.10;;;18.00;49.10;;;;;;5031520;28;20028;-73
2021/06/01 20:19:10;;;;;;;0.20;0.20;;;18.00;49.10;;;;;;5031614;28;20447;-74
2021/06/01 20:21:37;;;;;;;0.10;0.10;;;18.00;49.10;;;;;;5013791;28;20288;-73
2021/06/01 20:24:06;;;;;;;0.40;0.40;;;18.00;49.30;;;;;;5031583;28;20022;-73